createdAt,value
2023-02-17T00:00:35.150Z,11.53
2023-02-17T00:03:03.411Z,14.67
2023-02-17T00:05:31.703Z,12.90
2023-02-17T00:08:01.564Z,12.70
2023-02-17T00:10:29.863Z,12.63
2023-02-17T00:12:58.061Z,12.40
2023-02-17T00:15:26.345Z,12.40
2023-02-17T00:17:54.536Z,11.70
2023-02-17T00:20:22.863Z,13.47
2023-02-17T00:22:51.606Z,11.53
2023-02-17T00:25:21.317Z,11.20
2023-02-17T00:27:49.492Z,12.50
2023-02-17T00:30:18.223Z,12.73
2023-02-17T00:32:46.508Z,11.37
2023-02-17T00:35:14.849Z,13.60
2023-02-17T00:37:45.452Z,13.07
2023-02-17T00:40:14.062Z,11.90
2023-02-17T00:42:43.725Z,11.20
2023-02-17T00:45:11.989Z,11.37
2023-02-17T00:47:40.232Z,12.03
2023-02-17T00:50:09.085Z,14.53
2023-02-17T00:52:37.391Z,11.43
2023-02-17T00:55:05.823Z,12.00
2023-02-17T00:57:34.072Z,11.93
2023-02-17T01:00:04.007Z,12.27
2023-02-17T01:02:32.591Z,11.17
2023-02-17T01:05:00.867Z,11.30
2023-02-17T01:07:29.197Z,13.27
2023-02-17T01:09:57.384Z,11.07
2023-02-17T01:12:25.761Z,10.50
2023-02-17T01:14:54.279Z,12.47
2023-02-17T01:17:23.915Z,11.87
2023-02-17T01:19:52.188Z,11.67
2023-02-17T01:22:20.449Z,12.53
2023-02-17T01:24:48.645Z,12.30
2023-02-17T01:27:17.387Z,11.53
2023-02-17T01:29:46.409Z,12.80
2023-02-17T01:32:14.688Z,14.07
2023-02-17T01:34:44.334Z,10.50
2023-02-17T01:37:12.636Z,13.10
2023-02-17T01:39:41.191Z,13.77
2023-02-17T01:42:14.054Z,13.70
2023-02-17T01:44:57.503Z,13.50
2023-02-17T01:47:25.794Z,13.60
2023-02-17T01:49:55.409Z,12.53
2023-02-17T01:52:26.912Z,11.97
2023-02-17T01:54:57.038Z,13.00
2023-02-17T01:57:26.736Z,13.47
2023-02-17T01:59:55.505Z,14.87
2023-02-17T02:02:24.487Z,13.50
2023-02-17T02:04:54.446Z,12.93
2023-02-17T02:07:27.238Z,12.50
2023-02-17T02:09:56.354Z,12.17
2023-02-17T02:12:26.480Z,12.17
2023-02-17T02:14:56.630Z,11.50
2023-02-17T02:17:30.105Z,11.73
2023-02-17T02:20:04.701Z,13.37
2023-02-17T02:23:02.340Z,12.57
2023-02-17T02:25:41.584Z,11.10
2023-02-17T02:28:13.549Z,14.27
2023-02-17T02:30:54.385Z,12.33
2023-02-17T02:33:28.368Z,14.23
2023-02-17T02:35:59.142Z,12.60
2023-02-17T02:38:30.718Z,12.13
2023-02-17T02:41:01.909Z,11.90
2023-02-17T02:43:30.897Z,12.63
2023-02-17T02:45:59.220Z,12.50
2023-02-17T02:48:29.056Z,12.87
2023-02-17T02:51:05.332Z,12.70
2023-02-17T02:53:51.006Z,11.77
2023-02-17T02:56:24.178Z,13.10
2023-02-17T02:59:02.289Z,13.10
2023-02-17T03:01:32.821Z,14.57
2023-02-17T03:04:06.858Z,11.63
2023-02-17T03:06:38.260Z,12.63
2023-02-17T03:09:07.543Z,12.07
2023-02-17T03:11:36.247Z,12.40
2023-02-17T03:14:05.333Z,11.90
2023-02-17T03:16:34.711Z,11.40
2023-02-17T03:19:04.648Z,10.90
2023-02-17T03:21:35.810Z,12.37
2023-02-17T03:24:04.134Z,14.27
2023-02-17T03:26:32.344Z,13.43
2023-02-17T03:29:01.004Z,12.27
2023-02-17T03:31:30.838Z,12.20
2023-02-17T03:33:59.572Z,12.30
2023-02-17T03:36:30.050Z,12.57
2023-02-17T03:38:58.600Z,11.20
2023-02-17T03:41:27.276Z,12.80
2023-02-17T03:43:55.800Z,12.60
2023-02-17T03:46:24.092Z,12.57
2023-02-17T03:48:52.383Z,12.33
2023-02-17T03:51:22.232Z,11.50
2023-02-17T03:53:52.345Z,12.73
2023-02-17T03:56:20.895Z,12.77
2023-02-17T03:58:49.681Z,12.70
2023-02-17T04:01:17.995Z,10.60
2023-02-17T04:03:46.357Z,11.60
2023-02-17T04:06:14.609Z,10.33
2023-02-17T04:08:42.988Z,12.43
2023-02-17T04:11:12.884Z,12.70
2023-02-17T04:13:41.287Z,12.20
2023-02-17T04:16:10.659Z,9.83
2023-02-17T04:18:39.376Z,10.30
2023-02-17T04:21:08.237Z,11.33
2023-02-17T04:23:36.959Z,10.70
2023-02-17T04:26:05.629Z,11.70
2023-02-17T04:28:35.480Z,11.80
2023-02-17T04:31:03.886Z,11.33
2023-02-17T04:33:32.195Z,11.50
2023-02-17T04:36:00.859Z,10.80
2023-02-17T04:38:29.491Z,10.93
2023-02-17T04:40:58.347Z,11.23
2023-02-17T04:43:27.144Z,10.60
2023-02-17T04:45:57.300Z,9.60
2023-02-17T04:48:26.112Z,10.80
2023-02-17T04:50:54.502Z,10.90
2023-02-17T04:53:22.906Z,10.10
2023-02-17T04:55:51.503Z,12.80
2023-02-17T04:58:20.015Z,12.40
2023-02-17T05:00:48.626Z,9.53
2023-02-17T05:03:18.733Z,10.13
2023-02-17T05:05:47.038Z,12.70
2023-02-17T05:08:15.345Z,10.87
2023-02-17T05:10:44.030Z,11.73
2023-02-17T05:13:12.689Z,10.90
2023-02-17T05:15:40.976Z,11.33
2023-02-17T05:18:10.262Z,11.10
2023-02-17T05:20:40.342Z,9.83
2023-02-17T05:23:08.736Z,9.20
2023-02-17T05:25:37.061Z,10.40
2023-02-17T05:28:05.431Z,9.93
2023-02-17T05:30:33.686Z,9.40
2023-02-17T05:33:01.983Z,9.30
2023-02-17T05:35:30.260Z,11.20
2023-02-17T05:38:00.136Z,9.43
2023-02-17T05:40:28.383Z,10.60
2023-02-17T05:42:56.662Z,9.80
2023-02-17T05:45:26.041Z,9.97
2023-02-17T05:47:54.497Z,10.70
2023-02-17T05:50:22.824Z,10.17
2023-02-17T05:52:51.075Z,9.20
2023-02-17T05:55:22.198Z,8.57
2023-02-17T05:57:50.474Z,9.93
2023-02-17T06:00:19.134Z,10.03
2023-02-17T06:02:47.499Z,9.37
2023-02-17T06:05:17.168Z,9.80
2023-02-17T06:07:45.530Z,10.87
2023-02-17T06:10:13.916Z,9.70
2023-02-17T06:12:43.571Z,10.53
2023-02-17T06:15:12.156Z,10.60
2023-02-17T06:17:40.417Z,11.50
2023-02-17T06:20:09.763Z,9.47
2023-02-17T06:22:38.070Z,11.23
2023-02-17T06:25:12.408Z,11.43
2023-02-17T06:27:42.159Z,9.67
2023-02-17T06:30:13.867Z,11.90
2023-02-17T06:32:47.368Z,10.50
2023-02-17T06:35:15.652Z,12.20
2023-02-17T06:37:44.558Z,8.70
2023-02-17T06:40:13.380Z,10.13
2023-02-17T06:42:41.704Z,9.97
2023-02-17T06:45:10.545Z,10.03
2023-02-17T06:47:40.172Z,10.23
2023-02-17T06:50:09.303Z,9.57
2023-02-17T06:52:38.456Z,11.03
2023-02-17T06:55:06.942Z,10.50
2023-02-17T06:57:37.358Z,10.13
2023-02-17T07:00:06.079Z,9.73
2023-02-17T07:02:34.442Z,11.40
2023-02-17T07:05:04.135Z,10.60
2023-02-17T07:07:32.454Z,11.47
2023-02-17T07:10:00.785Z,9.20
2023-02-17T07:12:29.493Z,10.60
2023-02-17T07:14:58.049Z,8.73
2023-02-17T07:17:26.908Z,10.23
2023-02-17T07:19:55.128Z,10.33
2023-02-17T07:22:26.962Z,10.00
2023-02-17T07:24:55.284Z,9.63
2023-02-17T07:27:23.587Z,13.03
2023-02-17T07:29:51.905Z,9.30
2023-02-17T07:32:20.170Z,9.27
2023-02-17T07:34:48.841Z,11.90
2023-02-17T07:37:17.179Z,10.40
2023-02-17T07:39:46.815Z,8.90
2023-02-17T07:42:15.206Z,11.40
2023-02-17T07:44:43.737Z,9.57
2023-02-17T07:47:12.324Z,11.03
2023-02-17T07:49:40.610Z,11.00
2023-02-17T07:52:09.406Z,10.23
2023-02-17T07:54:37.887Z,12.50
2023-02-17T07:57:07.672Z,8.97
2023-02-17T07:59:36.061Z,10.07
2023-02-17T08:02:04.411Z,12.13
2023-02-17T08:04:33.763Z,10.70
2023-02-17T08:07:02.161Z,9.00
2023-02-17T08:09:48.765Z,11.03
2023-02-17T08:12:36.853Z,10.80
2023-02-17T08:15:05.224Z,11.57
2023-02-17T08:17:33.738Z,11.10
2023-02-17T08:20:08.678Z,11.13
2023-02-17T08:22:37.474Z,10.77
2023-02-17T08:25:06.812Z,9.63
2023-02-17T08:27:36.673Z,10.33
2023-02-17T08:30:05.308Z,11.23
2023-02-17T08:32:33.697Z,9.97
2023-02-17T08:35:02.286Z,9.23
2023-02-17T08:37:31.899Z,10.07
2023-02-17T08:40:00.366Z,10.90
2023-02-17T08:42:29.120Z,10.00
2023-02-17T08:44:58.716Z,9.63
2023-02-17T08:47:27.323Z,11.90
2023-02-17T08:49:55.959Z,11.33
2023-02-17T08:52:24.356Z,10.80
2023-02-17T08:54:53.154Z,8.27
2023-02-17T08:57:21.592Z,11.17
2023-02-17T08:59:51.345Z,11.17
2023-02-17T09:02:23.418Z,11.70
2023-02-17T09:04:52.069Z,10.17
2023-02-17T09:07:20.477Z,11.07
2023-02-17T09:09:48.890Z,10.40
2023-02-17T09:12:17.420Z,10.73
2023-02-17T09:14:46.048Z,10.07
2023-02-17T09:17:14.558Z,9.40
2023-02-17T09:19:44.395Z,8.83
2023-02-17T09:22:29.771Z,12.73
2023-02-17T09:24:59.333Z,9.37
2023-02-17T09:27:27.711Z,10.03
2023-02-17T09:29:56.016Z,8.90
2023-02-17T09:32:25.480Z,9.43
2023-02-17T09:34:57.433Z,9.53
2023-02-17T09:37:25.892Z,9.13
2023-02-17T09:39:54.181Z,8.50
2023-02-17T09:42:24.407Z,7.93
2023-02-17T09:44:54.752Z,7.23
2023-02-17T09:47:25.359Z,7.70
2023-02-17T09:49:57.079Z,6.93
2023-02-17T09:52:27.947Z,7.40
2023-02-17T09:55:01.681Z,8.40
2023-02-17T09:57:30.990Z,7.53
2023-02-17T10:00:00.933Z,8.10
2023-02-17T10:02:33.313Z,8.13
2023-02-17T10:05:06.299Z,6.33
2023-02-17T10:07:36.463Z,7.17
2023-02-17T10:10:08.009Z,5.50
2023-02-17T10:12:38.701Z,4.73
2023-02-17T10:15:10.557Z,6.57
2023-02-17T10:17:43.975Z,5.40
2023-02-17T10:20:16.121Z,5.27
2023-02-17T10:22:45.672Z,5.43
2023-02-17T10:25:16.685Z,4.90
2023-02-17T10:27:48.070Z,5.30
2023-02-17T10:30:21.789Z,4.37
2023-02-17T10:32:55.423Z,5.27
2023-02-17T10:35:30.733Z,5.27
2023-02-17T10:38:01.559Z,4.00
2023-02-17T10:40:32.771Z,3.80
2023-02-17T10:43:07.067Z,3.70
2023-02-17T10:45:37.286Z,3.70
2023-02-17T10:48:08.190Z,3.90
2023-02-17T10:50:38.890Z,4.00
2023-02-17T10:53:13.790Z,4.10
2023-02-17T10:55:47.261Z,2.83
2023-02-17T10:58:20.933Z,4.33
2023-02-17T11:00:51.765Z,3.17
2023-02-17T11:03:21.359Z,3.30
2023-02-17T11:05:56.422Z,6.07
2023-02-17T11:08:33.297Z,3.00
2023-02-17T11:11:02.354Z,3.03
2023-02-17T11:13:34.351Z,3.50
2023-02-17T11:16:03.024Z,3.10
2023-02-17T11:18:34.049Z,2.80
2023-02-17T11:21:08.798Z,3.30
2023-02-17T11:23:38.082Z,3.50
2023-02-17T11:26:10.924Z,2.03
2023-02-17T11:28:40.152Z,3.10
2023-02-17T11:31:09.358Z,2.17
2023-02-17T11:33:38.502Z,2.70
2023-02-17T11:36:13.571Z,2.77
2023-02-17T11:38:46.073Z,2.63
2023-02-17T11:41:14.514Z,2.73
2023-02-17T11:43:52.766Z,2.60
2023-02-17T11:46:24.828Z,3.00
2023-02-17T11:49:13.950Z,2.33
2023-02-17T11:51:48.835Z,2.90
2023-02-17T11:54:23.546Z,2.40
2023-02-17T11:57:01.864Z,2.50
2023-02-17T11:59:37.858Z,2.83
2023-02-17T12:02:22.435Z,3.03
2023-02-17T12:04:54.888Z,3.70
2023-02-17T12:07:33.040Z,2.67
2023-02-17T12:10:04.692Z,3.20
2023-02-17T12:12:38.619Z,2.60
2023-02-17T12:15:16.073Z,2.60
2023-02-17T12:17:48.806Z,2.40
2023-02-17T12:20:27.628Z,2.87
2023-02-17T12:23:02.695Z,2.10
2023-02-17T12:25:33.456Z,2.10
2023-02-17T12:28:07.672Z,2.47
2023-02-17T12:30:42.308Z,2.40
2023-02-17T12:33:15.669Z,2.67
2023-02-17T12:35:51.040Z,2.80
2023-02-17T12:38:26.522Z,3.30
2023-02-17T12:40:57.319Z,3.00
2023-02-17T12:43:27.332Z,3.03
2023-02-17T12:45:57.253Z,3.30
2023-02-17T12:48:27.852Z,2.50
2023-02-17T12:50:58.279Z,3.00
2023-02-17T12:53:33.107Z,3.57
2023-02-17T12:56:06.052Z,3.27
2023-02-17T12:58:35.284Z,2.60
2023-02-17T13:01:07.317Z,3.23
2023-02-17T13:03:36.864Z,2.77
2023-02-17T13:06:08.820Z,3.00
2023-02-17T13:08:41.675Z,3.60
2023-02-17T13:11:13.819Z,2.70
2023-02-17T13:13:42.402Z,2.77
2023-02-17T13:16:11.851Z,3.03
2023-02-17T13:18:42.754Z,2.70
2023-02-17T13:21:18.696Z,2.43
2023-02-17T13:23:59.774Z,2.23
2023-02-17T13:26:29.966Z,2.30
2023-02-17T13:29:20.318Z,3.50
2023-02-17T13:31:50.813Z,2.60
2023-02-17T13:34:27.509Z,2.67
2023-02-17T13:36:55.810Z,3.00
2023-02-17T13:39:39.216Z,2.43
2023-02-17T13:42:23.581Z,2.80
2023-02-17T13:44:52.589Z,2.70
2023-02-17T13:47:25.032Z,2.83
2023-02-17T13:49:54.226Z,2.47
2023-02-17T13:52:24.823Z,3.00
2023-02-17T13:54:55.731Z,2.57
2023-02-17T13:57:25.042Z,3.20
2023-02-17T13:59:53.358Z,3.20
2023-02-17T14:02:35.519Z,2.87
2023-02-17T14:05:08.431Z,2.77
2023-02-17T14:07:37.061Z,3.00
2023-02-17T14:10:17.984Z,3.03
2023-02-17T14:12:46.819Z,3.20
2023-02-17T14:15:17.237Z,2.83
2023-02-17T14:17:45.873Z,3.57
2023-02-17T14:20:26.576Z,3.60
2023-02-17T14:23:04.211Z,3.10
2023-02-17T14:25:34.853Z,4.00
2023-02-17T14:28:04.102Z,3.50
2023-02-17T14:30:33.456Z,3.60
2023-02-17T14:33:06.363Z,4.00
2023-02-17T14:35:35.508Z,4.50
2023-02-17T14:38:11.571Z,4.30
2023-02-17T14:40:41.172Z,4.40
2023-02-17T14:43:09.478Z,4.70
2023-02-17T14:45:40.046Z,3.30
2023-02-17T14:48:08.500Z,4.53
2023-02-17T14:50:42.366Z,4.07
2023-02-17T14:53:13.428Z,4.97
2023-02-17T14:55:47.312Z,4.47
2023-02-17T14:58:19.810Z,3.73
2023-02-17T15:00:48.150Z,3.80
2023-02-17T15:03:16.414Z,3.20
2023-02-17T15:05:44.825Z,3.43
2023-02-17T15:08:14.859Z,3.00
2023-02-17T15:10:43.300Z,3.17
2023-02-17T15:13:15.455Z,1.50
2023-02-17T15:15:45.100Z,2.53
2023-02-17T15:18:13.507Z,2.30
2023-02-17T15:20:42.799Z,2.30
2023-02-17T15:23:13.676Z,2.13
2023-02-17T15:25:42.048Z,2.10
2023-02-17T15:28:13.899Z,2.17
2023-02-17T15:30:43.619Z,2.37
2023-02-17T15:33:20.296Z,2.20
2023-02-17T15:35:48.878Z,2.47
2023-02-17T15:38:17.232Z,2.40
2023-02-17T15:40:45.453Z,2.30
2023-02-17T15:43:15.514Z,2.60
2023-02-17T15:45:45.276Z,2.60
2023-02-17T15:48:15.045Z,1.87
2023-02-17T15:50:50.271Z,2.20
2023-02-17T15:53:18.585Z,2.30
2023-02-17T15:55:47.206Z,2.50
2023-02-17T15:58:17.368Z,2.80
2023-02-17T16:01:03.870Z,1.03
2023-02-17T16:03:32.558Z,2.13
2023-02-17T16:06:00.831Z,2.13
2023-02-17T16:08:29.105Z,2.50
2023-02-17T16:10:57.587Z,2.53
2023-02-17T16:13:27.692Z,2.27
2023-02-17T16:15:59.573Z,2.37
2023-02-17T16:18:27.807Z,2.17
2023-02-17T16:20:56.356Z,1.90
2023-02-17T16:23:24.741Z,2.70
2023-02-17T16:25:53.536Z,2.20
2023-02-17T16:28:23.094Z,2.50
2023-02-17T16:30:51.993Z,2.20
2023-02-17T16:33:25.769Z,2.80
2023-02-17T16:35:54.041Z,2.40
2023-02-17T16:38:23.680Z,2.10
2023-02-17T16:40:53.374Z,2.63
2023-02-17T16:43:25.359Z,3.13
2023-02-17T16:45:54.780Z,3.23
2023-02-17T16:48:24.188Z,2.53
2023-02-17T16:50:53.977Z,3.70
2023-02-17T16:53:22.303Z,3.10
2023-02-17T16:55:50.956Z,3.63
2023-02-17T16:58:20.048Z,2.60
2023-02-17T17:00:49.130Z,3.37
2023-02-17T17:03:17.408Z,4.47
2023-02-17T17:05:46.068Z,3.30
2023-02-17T17:08:16.764Z,2.90
2023-02-17T17:10:45.721Z,3.67
2023-02-17T17:13:14.633Z,4.10
2023-02-17T17:15:45.341Z,2.83
2023-02-17T17:18:20.150Z,3.07
2023-02-17T17:20:48.957Z,3.60
2023-02-17T17:23:19.119Z,3.23
2023-02-17T17:25:52.282Z,4.30
2023-02-17T17:28:22.108Z,3.70
2023-02-17T17:30:51.498Z,2.97
2023-02-17T17:33:19.798Z,3.67
2023-02-17T17:35:48.255Z,3.63
2023-02-17T17:38:16.978Z,2.77
2023-02-17T17:40:49.414Z,3.23
2023-02-17T17:43:18.719Z,3.40
2023-02-17T17:45:47.097Z,4.17
2023-02-17T17:48:16.941Z,4.70
2023-02-17T17:50:45.759Z,4.93
2023-02-17T17:53:14.029Z,4.70
2023-02-17T17:55:42.439Z,5.67
2023-02-17T17:58:12.142Z,4.40
2023-02-17T18:00:40.429Z,6.20
2023-02-17T18:03:08.693Z,6.20
2023-02-17T18:05:37.547Z,6.50
2023-02-17T18:08:06.632Z,6.10
2023-02-17T18:10:34.924Z,6.37
2023-02-17T18:13:03.297Z,5.40
2023-02-17T18:15:33.725Z,5.40
2023-02-17T18:18:02.058Z,6.10
2023-02-17T18:20:30.331Z,5.80
2023-02-17T18:23:00.665Z,5.77
2023-02-17T18:25:30.044Z,6.00
2023-02-17T18:27:58.333Z,6.17
2023-02-17T18:30:27.352Z,7.13
2023-02-17T18:32:57.123Z,5.83
2023-02-17T18:35:26.701Z,7.13
2023-02-17T18:37:54.995Z,6.07
2023-02-17T18:40:23.950Z,5.70
2023-02-17T18:42:53.184Z,7.70
2023-02-17T18:45:21.621Z,6.73
2023-02-17T18:47:49.956Z,5.63
2023-02-17T18:50:19.706Z,6.23
2023-02-17T18:52:47.976Z,6.13
2023-02-17T18:55:16.592Z,5.97
2023-02-17T18:57:45.440Z,6.60
2023-02-17T19:00:16.748Z,5.80
2023-02-17T19:02:45.336Z,5.60
2023-02-17T19:05:13.776Z,5.07
2023-02-17T19:07:43.730Z,6.33
2023-02-17T19:10:12.430Z,5.93
2023-02-17T19:12:43.081Z,5.10
2023-02-17T19:15:13.842Z,7.00
2023-02-17T19:17:42.331Z,5.10
2023-02-17T19:20:11.081Z,5.47
2023-02-17T19:22:39.662Z,5.60
2023-02-17T19:25:10.843Z,5.47
2023-02-17T19:27:41.236Z,5.33
2023-02-17T19:30:10.670Z,5.60
2023-02-17T19:32:39.057Z,5.53
2023-02-17T19:35:08.356Z,5.83
2023-02-17T19:37:37.772Z,6.50
2023-02-17T19:40:06.517Z,6.57
2023-02-17T19:42:36.228Z,5.20
2023-02-17T19:45:04.582Z,5.53
2023-02-17T19:47:32.952Z,5.27
2023-02-17T19:50:01.411Z,5.93
2023-02-17T19:52:29.821Z,5.90
2023-02-17T19:54:58.274Z,5.67
2023-02-17T19:57:26.519Z,6.43
2023-02-17T19:59:56.400Z,5.87
2023-02-17T20:02:24.888Z,5.30
2023-02-17T20:04:53.372Z,6.23
2023-02-17T20:07:21.730Z,5.67
2023-02-17T20:09:50.147Z,7.80
2023-02-17T20:12:18.719Z,5.53
2023-02-17T20:14:47.135Z,6.70
2023-02-17T20:17:17.041Z,6.33
2023-02-17T20:19:45.413Z,6.93
2023-02-17T20:22:13.806Z,6.07
2023-02-17T20:24:42.731Z,5.40
2023-02-17T20:27:13.154Z,5.20
2023-02-17T20:29:41.431Z,5.60
2023-02-17T20:32:10.176Z,6.43
2023-02-17T20:34:40.738Z,5.50
2023-02-17T20:37:09.818Z,5.63
2023-02-17T20:39:39.240Z,4.80
2023-02-17T20:42:07.635Z,5.20
2023-02-17T20:44:36.431Z,5.10
2023-02-17T20:47:05.411Z,6.10
2023-02-17T20:49:36.318Z,6.23
2023-02-17T20:52:06.814Z,7.50
2023-02-17T20:54:35.791Z,6.53
2023-02-17T20:57:05.047Z,6.10
2023-02-17T20:59:33.397Z,6.10
2023-02-17T21:02:01.697Z,6.70
2023-02-17T21:04:30.013Z,6.80
2023-02-17T21:07:00.424Z,7.30
2023-02-17T21:09:31.452Z,7.00
2023-02-17T21:11:59.691Z,7.80
2023-02-17T21:14:27.969Z,6.70
2023-02-17T21:16:57.670Z,7.80
2023-02-17T21:19:26.005Z,7.90
2023-02-17T21:21:54.267Z,6.90
2023-02-17T21:24:22.641Z,6.63
2023-02-17T21:26:52.294Z,7.23
2023-02-17T21:29:20.634Z,8.13
2023-02-17T21:31:48.981Z,8.53
2023-02-17T21:34:17.630Z,8.30
2023-02-17T21:36:45.909Z,9.33
2023-02-17T21:39:14.169Z,7.20
2023-02-17T21:41:43.247Z,8.13
2023-02-17T21:44:32.703Z,7.93
2023-02-17T21:47:01.172Z,8.40
2023-02-17T21:49:29.495Z,8.50
2023-02-17T21:51:57.829Z,8.37
2023-02-17T21:54:26.159Z,9.40
2023-02-17T21:56:54.455Z,8.17
2023-02-17T21:59:24.375Z,9.30
2023-02-17T22:01:52.759Z,7.97
2023-02-17T22:04:21.607Z,8.50
2023-02-17T22:06:49.916Z,9.90
2023-02-17T22:09:18.346Z,8.13
2023-02-17T22:11:47.630Z,8.07
2023-02-17T22:14:17.110Z,7.90
2023-02-17T22:16:47.236Z,9.70
2023-02-17T22:19:16.637Z,10.40
2023-02-17T22:21:45.277Z,9.80
2023-02-17T22:24:13.908Z,9.93
2023-02-17T22:26:42.660Z,8.53
2023-02-17T22:29:10.992Z,8.43
2023-02-17T22:31:39.657Z,9.73
2023-02-17T22:34:10.752Z,10.30
2023-02-17T22:36:39.280Z,11.73
2023-02-17T22:39:08.806Z,8.50
2023-02-17T22:41:38.904Z,10.33
2023-02-17T22:44:07.268Z,9.07
2023-02-17T22:46:35.973Z,9.57
2023-02-17T22:49:04.340Z,11.00
2023-02-17T22:51:36.066Z,9.60
2023-02-17T22:54:04.688Z,9.90
2023-02-17T22:56:33.583Z,10.70
2023-02-17T22:59:03.938Z,10.30
2023-02-17T23:01:35.194Z,11.20
2023-02-17T23:04:03.782Z,12.10
2023-02-17T23:06:33.144Z,9.90
2023-02-17T23:09:03.238Z,8.50
2023-02-17T23:11:49.934Z,9.90
2023-02-17T23:14:19.037Z,9.00
2023-02-17T23:16:47.489Z,10.17
2023-02-17T23:19:17.133Z,9.57
2023-02-17T23:21:45.795Z,9.23
2023-02-17T23:24:15.709Z,9.03
2023-02-17T23:26:44.081Z,8.83
2023-02-17T23:29:12.853Z,7.97
2023-02-17T23:31:41.591Z,11.93
2023-02-17T23:34:10.555Z,9.37
2023-02-17T23:36:40.083Z,7.33
2023-02-17T23:39:08.382Z,8.53
2023-02-17T23:41:38.759Z,8.70
2023-02-17T23:44:08.410Z,8.20
2023-02-17T23:46:37.050Z,8.50
2023-02-17T23:49:06.051Z,10.00
2023-02-17T23:51:34.660Z,8.57
2023-02-17T23:54:02.995Z,10.17
2023-02-17T23:56:31.981Z,9.53
2023-02-17T23:59:02.199Z,10.40
